sensor_id;sensor_type;location;lat;lon;timestamp;temperature;humidity
4934;DHT22;2482;49.154;8.254;2023-08-06T00:01:49;16.00;99.90
4934;DHT22;2482;49.154;8.254;2023-08-06T00:04:18;16.00;99.90
4934;DHT22;2482;49.154;8.254;2023-08-06T00:06:46;15.90;99.90
4934;DHT22;2482;49.154;8.254;2023-08-06T00:09:13;15.90;99.90
4934;DHT22;2482;49.154;8.254;2023-08-06T00:11:40;16.00;99.90
4934;DHT22;2482;49.154;8.254;2023-08-06T00:14:08;15.90;99.90
4934;DHT22;2482;49.154;8.254;2023-08-06T00:16:35;15.90;99.90
4934;DHT22;2482;49.154;8.254;2023-08-06T00:19:02;15.90;99.90
4934;DHT22;2482;49.154;8.254;2023-08-06T00:21:29;15.90;99.90
4934;DHT22;2482;49.154;8.254;2023-08-06T00:23:56;15.90;99.90
4934;DHT22;2482;49.154;8.254;2023-08-06T00:26:23;15.90;99.90
4934;DHT22;2482;49.154;8.254;2023-08-06T00:28:51;15.90;99.90
4934;DHT22;2482;49.154;8.254;2023-08-06T00:31:18;16.10;99.90
4934;DHT22;2482;49.154;8.254;2023-08-06T00:33:45;16.20;99.90
4934;DHT22;2482;49.154;8.254;2023-08-06T00:36:12;16.10;99.90
4934;DHT22;2482;49.154;8.254;2023-08-06T00:38:39;16.10;99.90
4934;DHT22;2482;49.154;8.254;2023-08-06T00:41:06;16.10;99.90
4934;DHT22;2482;49.154;8.254;2023-08-06T00:43:33;16.20;99.90
4934;DHT22;2482;49.154;8.254;2023-08-06T00:46:00;16.20;99.90
4934;DHT22;2482;49.154;8.254;2023-08-06T00:48:27;16.10;99.90
4934;DHT22;2482;49.154;8.254;2023-08-06T00:50:54;16.10;99.90
4934;DHT22;2482;49.154;8.254;2023-08-06T00:53:22;16.10;99.90
4934;DHT22;2482;49.154;8.254;2023-08-06T00:55:49;16.10;99.90
4934;DHT22;2482;49.154;8.254;2023-08-06T00:58:16;16.00;99.90
4934;DHT22;2482;49.154;8.254;2023-08-06T01:00:44;16.10;99.90
4934;DHT22;2482;49.154;8.254;2023-08-06T01:03:12;16.10;99.90
4934;DHT22;2482;49.154;8.254;2023-08-06T01:05:39;16.10;99.90
4934;DHT22;2482;49.154;8.254;2023-08-06T01:13:34;16.00;99.90
4934;DHT22;2482;49.154;8.254;2023-08-06T01:16:09;16.00;99.90
4934;DHT22;2482;49.154;8.254;2023-08-06T01:18:36;16.00;99.90
4934;DHT22;2482;49.154;8.254;2023-08-06T01:21:05;16.00;99.90
4934;DHT22;2482;49.154;8.254;2023-08-06T01:23:32;16.10;99.90
4934;DHT22;2482;49.154;8.254;2023-08-06T01:29:11;16.20;99.90
4934;DHT22;2482;49.154;8.254;2023-08-06T01:32:02;16.10;99.90
4934;DHT22;2482;49.154;8.254;2023-08-06T01:34:32;16.10;99.90
4934;DHT22;2482;49.154;8.254;2023-08-06T01:37:01;16.00;99.90
4934;DHT22;2482;49.154;8.254;2023-08-06T01:39:33;15.90;99.90
4934;DHT22;2482;49.154;8.254;2023-08-06T01:42:00;15.80;99.90
4934;DHT22;2482;49.154;8.254;2023-08-06T01:44:27;15.90;99.90
4934;DHT22;2482;49.154;8.254;2023-08-06T01:46:54;15.90;99.90
4934;DHT22;2482;49.154;8.254;2023-08-06T01:49:21;16.00;99.90
4934;DHT22;2482;49.154;8.254;2023-08-06T01:51:48;16.00;99.90
4934;DHT22;2482;49.154;8.254;2023-08-06T01:54:16;16.00;99.90
4934;DHT22;2482;49.154;8.254;2023-08-06T01:56:43;15.90;99.90
4934;DHT22;2482;49.154;8.254;2023-08-06T01:59:10;15.90;99.90
4934;DHT22;2482;49.154;8.254;2023-08-06T02:01:37;15.90;99.90
4934;DHT22;2482;49.154;8.254;2023-08-06T02:04:04;15.90;99.90
4934;DHT22;2482;49.154;8.254;2023-08-06T02:06:31;15.90;99.90
4934;DHT22;2482;49.154;8.254;2023-08-06T02:08:58;15.80;99.90
4934;DHT22;2482;49.154;8.254;2023-08-06T02:11:25;15.80;99.90
4934;DHT22;2482;49.154;8.254;2023-08-06T02:13:52;15.70;99.90
4934;DHT22;2482;49.154;8.254;2023-08-06T02:16:18;15.70;99.90
4934;DHT22;2482;49.154;8.254;2023-08-06T02:18:46;15.70;99.90
4934;DHT22;2482;49.154;8.254;2023-08-06T02:21:13;15.70;99.90
4934;DHT22;2482;49.154;8.254;2023-08-06T02:23:40;15.70;99.90
4934;DHT22;2482;49.154;8.254;2023-08-06T02:26:07;15.70;99.90
4934;DHT22;2482;49.154;8.254;2023-08-06T02:28:34;15.80;99.90
4934;DHT22;2482;49.154;8.254;2023-08-06T02:31:01;15.80;99.90
4934;DHT22;2482;49.154;8.254;2023-08-06T02:33:28;15.80;99.90
4934;DHT22;2482;49.154;8.254;2023-08-06T02:36:02;15.70;99.90
4934;DHT22;2482;49.154;8.254;2023-08-06T02:38:31;15.80;99.90
4934;DHT22;2482;49.154;8.254;2023-08-06T02:40:59;15.80;99.90
4934;DHT22;2482;49.154;8.254;2023-08-06T02:43:29;15.80;99.90
4934;DHT22;2482;49.154;8.254;2023-08-06T02:45:59;15.90;99.90
4934;DHT22;2482;49.154;8.254;2023-08-06T02:48:27;15.90;99.90
4934;DHT22;2482;49.154;8.254;2023-08-06T02:50:57;15.80;99.90
4934;DHT22;2482;49.154;8.254;2023-08-06T02:53:26;15.80;99.90
4934;DHT22;2482;49.154;8.254;2023-08-06T02:55:53;15.90;99.90
4934;DHT22;2482;49.154;8.254;2023-08-06T02:58:21;15.80;99.90
4934;DHT22;2482;49.154;8.254;2023-08-06T03:01:04;15.80;99.90
4934;DHT22;2482;49.154;8.254;2023-08-06T03:03:33;15.70;99.90
4934;DHT22;2482;49.154;8.254;2023-08-06T03:06:01;15.60;99.90
4934;DHT22;2482;49.154;8.254;2023-08-06T03:08:28;15.60;99.90
4934;DHT22;2482;49.154;8.254;2023-08-06T03:10:55;15.60;99.90
4934;DHT22;2482;49.154;8.254;2023-08-06T03:13:22;15.60;99.90
4934;DHT22;2482;49.154;8.254;2023-08-06T03:15:57;15.50;99.90
4934;DHT22;2482;49.154;8.254;2023-08-06T03:18:25;15.50;99.90
4934;DHT22;2482;49.154;8.254;2023-08-06T03:20:53;15.50;99.90
4934;DHT22;2482;49.154;8.254;2023-08-06T03:23:20;15.40;99.90
4934;DHT22;2482;49.154;8.254;2023-08-06T03:25:47;15.40;99.90
4934;DHT22;2482;49.154;8.254;2023-08-06T03:28:14;15.40;99.90
4934;DHT22;2482;49.154;8.254;2023-08-06T03:30:41;15.30;99.90
4934;DHT22;2482;49.154;8.254;2023-08-06T03:33:09;15.30;99.90
4934;DHT22;2482;49.154;8.254;2023-08-06T03:35:36;15.40;99.90
4934;DHT22;2482;49.154;8.254;2023-08-06T03:38:03;15.40;99.90
4934;DHT22;2482;49.154;8.254;2023-08-06T03:40:30;15.30;99.90
4934;DHT22;2482;49.154;8.254;2023-08-06T03:42:57;15.30;99.90
4934;DHT22;2482;49.154;8.254;2023-08-06T03:45:24;15.20;99.90
4934;DHT22;2482;49.154;8.254;2023-08-06T03:47:50;15.20;99.90
4934;DHT22;2482;49.154;8.254;2023-08-06T03:50:18;15.10;99.90
4934;DHT22;2482;49.154;8.254;2023-08-06T03:52:45;15.10;99.90
4934;DHT22;2482;49.154;8.254;2023-08-06T03:55:12;15.00;99.90
4934;DHT22;2482;49.154;8.254;2023-08-06T03:57:39;14.90;99.90
4934;DHT22;2482;49.154;8.254;2023-08-06T04:00:07;14.90;99.90
4934;DHT22;2482;49.154;8.254;2023-08-06T04:02:34;15.00;99.90
4934;DHT22;2482;49.154;8.254;2023-08-06T04:05:01;14.90;99.90
4934;DHT22;2482;49.154;8.254;2023-08-06T04:07:28;14.80;99.90
4934;DHT22;2482;49.154;8.254;2023-08-06T04:09:58;14.80;99.90
4934;DHT22;2482;49.154;8.254;2023-08-06T04:12:26;14.80;99.90
4934;DHT22;2482;49.154;8.254;2023-08-06T04:14:53;14.80;99.90
4934;DHT22;2482;49.154;8.254;2023-08-06T04:17:21;14.90;99.90
4934;DHT22;2482;49.154;8.254;2023-08-06T04:19:53;14.90;99.90
4934;DHT22;2482;49.154;8.254;2023-08-06T04:22:21;14.90;99.90
4934;DHT22;2482;49.154;8.254;2023-08-06T04:24:48;15.00;99.90
4934;DHT22;2482;49.154;8.254;2023-08-06T04:27:16;14.90;99.90
4934;DHT22;2482;49.154;8.254;2023-08-06T04:29:44;14.90;99.90
4934;DHT22;2482;49.154;8.254;2023-08-06T04:32:11;14.90;99.90
4934;DHT22;2482;49.154;8.254;2023-08-06T04:34:39;14.90;99.90
4934;DHT22;2482;49.154;8.254;2023-08-06T04:37:07;14.90;99.90
4934;DHT22;2482;49.154;8.254;2023-08-06T04:39:34;14.90;99.90
4934;DHT22;2482;49.154;8.254;2023-08-06T04:42:00;14.90;99.90
4934;DHT22;2482;49.154;8.254;2023-08-06T04:44:28;15.00;99.90
4934;DHT22;2482;49.154;8.254;2023-08-06T04:46:55;15.00;99.90
4934;DHT22;2482;49.154;8.254;2023-08-06T04:49:22;15.00;99.90
4934;DHT22;2482;49.154;8.254;2023-08-06T04:51:49;15.00;99.90
4934;DHT22;2482;49.154;8.254;2023-08-06T04:54:16;15.00;99.90
4934;DHT22;2482;49.154;8.254;2023-08-06T04:56:43;14.90;99.90
4934;DHT22;2482;49.154;8.254;2023-08-06T04:59:10;14.90;99.90
4934;DHT22;2482;49.154;8.254;2023-08-06T05:01:37;14.80;99.90
4934;DHT22;2482;49.154;8.254;2023-08-06T05:04:04;14.90;99.90
4934;DHT22;2482;49.154;8.254;2023-08-06T05:06:31;14.90;99.90
4934;DHT22;2482;49.154;8.254;2023-08-06T05:08:58;14.90;99.90
4934;DHT22;2482;49.154;8.254;2023-08-06T05:11:25;14.90;99.90
4934;DHT22;2482;49.154;8.254;2023-08-06T05:13:52;14.90;99.90
4934;DHT22;2482;49.154;8.254;2023-08-06T05:16:19;14.90;99.90
4934;DHT22;2482;49.154;8.254;2023-08-06T05:18:46;15.00;99.90
4934;DHT22;2482;49.154;8.254;2023-08-06T05:21:13;15.00;99.90
4934;DHT22;2482;49.154;8.254;2023-08-06T05:23:40;15.00;99.90
4934;DHT22;2482;49.154;8.254;2023-08-06T05:26:07;15.00;99.90
4934;DHT22;2482;49.154;8.254;2023-08-06T05:28:34;14.90;99.90
4934;DHT22;2482;49.154;8.254;2023-08-06T05:31:04;14.90;99.90
4934;DHT22;2482;49.154;8.254;2023-08-06T05:33:32;14.90;99.90
4934;DHT22;2482;49.154;8.254;2023-08-06T05:35:59;14.70;99.90
4934;DHT22;2482;49.154;8.254;2023-08-06T05:38:26;14.70;99.90
4934;DHT22;2482;49.154;8.254;2023-08-06T05:40:53;14.80;99.90
4934;DHT22;2482;49.154;8.254;2023-08-06T05:43:20;14.80;99.90
4934;DHT22;2482;49.154;8.254;2023-08-06T05:45:49;14.90;99.90
4934;DHT22;2482;49.154;8.254;2023-08-06T05:48:17;14.90;99.90
4934;DHT22;2482;49.154;8.254;2023-08-06T05:50:44;15.00;99.90
4934;DHT22;2482;49.154;8.254;2023-08-06T05:53:11;15.10;99.90
4934;DHT22;2482;49.154;8.254;2023-08-06T05:55:39;15.10;99.90
4934;DHT22;2482;49.154;8.254;2023-08-06T05:58:06;15.20;99.90
4934;DHT22;2482;49.154;8.254;2023-08-06T06:00:33;15.20;99.90
4934;DHT22;2482;49.154;8.254;2023-08-06T06:03:01;15.30;99.90
4934;DHT22;2482;49.154;8.254;2023-08-06T06:05:29;15.30;99.90
4934;DHT22;2482;49.154;8.254;2023-08-06T06:07:56;15.30;99.90
4934;DHT22;2482;49.154;8.254;2023-08-06T06:10:23;15.30;99.90
4934;DHT22;2482;49.154;8.254;2023-08-06T06:12:50;15.30;99.90
4934;DHT22;2482;49.154;8.254;2023-08-06T06:15:17;15.30;99.90
4934;DHT22;2482;49.154;8.254;2023-08-06T06:17:44;15.30;99.90
4934;DHT22;2482;49.154;8.254;2023-08-06T06:20:11;15.30;99.90
4934;DHT22;2482;49.154;8.254;2023-08-06T06:22:38;15.30;99.90
4934;DHT22;2482;49.154;8.254;2023-08-06T06:25:06;15.30;99.90
4934;DHT22;2482;49.154;8.254;2023-08-06T06:27:33;15.40;99.90
4934;DHT22;2482;49.154;8.254;2023-08-06T06:30:00;15.50;99.90
4934;DHT22;2482;49.154;8.254;2023-08-06T06:32:27;15.40;99.90
4934;DHT22;2482;49.154;8.254;2023-08-06T06:34:54;15.50;99.90
4934;DHT22;2482;49.154;8.254;2023-08-06T06:37:21;15.50;99.90
4934;DHT22;2482;49.154;8.254;2023-08-06T06:39:48;15.40;99.90
4934;DHT22;2482;49.154;8.254;2023-08-06T06:42:15;15.50;99.90
4934;DHT22;2482;49.154;8.254;2023-08-06T06:44:43;15.50;99.90
4934;DHT22;2482;49.154;8.254;2023-08-06T06:47:09;15.50;99.90
4934;DHT22;2482;49.154;8.254;2023-08-06T06:49:36;15.60;99.90
4934;DHT22;2482;49.154;8.254;2023-08-06T06:52:04;15.60;99.90
4934;DHT22;2482;49.154;8.254;2023-08-06T06:54:31;15.60;99.90
4934;DHT22;2482;49.154;8.254;2023-08-06T06:56:58;15.60;99.90
4934;DHT22;2482;49.154;8.254;2023-08-06T06:59:25;15.70;99.90
4934;DHT22;2482;49.154;8.254;2023-08-06T07:01:52;15.80;99.90
4934;DHT22;2482;49.154;8.254;2023-08-06T07:04:19;15.60;99.90
4934;DHT22;2482;49.154;8.254;2023-08-06T07:06:49;15.60;99.90
4934;DHT22;2482;49.154;8.254;2023-08-06T07:09:16;15.70;99.90
4934;DHT22;2482;49.154;8.254;2023-08-06T07:11:43;15.70;99.90
4934;DHT22;2482;49.154;8.254;2023-08-06T07:14:10;15.70;99.90
4934;DHT22;2482;49.154;8.254;2023-08-06T07:16:37;15.70;99.90
4934;DHT22;2482;49.154;8.254;2023-08-06T07:19:04;15.70;99.90
4934;DHT22;2482;49.154;8.254;2023-08-06T07:21:32;15.80;99.90
4934;DHT22;2482;49.154;8.254;2023-08-06T07:23:59;15.90;99.90
4934;DHT22;2482;49.154;8.254;2023-08-06T07:26:26;15.80;99.90
4934;DHT22;2482;49.154;8.254;2023-08-06T07:28:53;15.80;99.90
4934;DHT22;2482;49.154;8.254;2023-08-06T07:31:20;15.90;99.90
4934;DHT22;2482;49.154;8.254;2023-08-06T07:33:47;15.90;99.90
4934;DHT22;2482;49.154;8.254;2023-08-06T07:36:15;15.80;99.90
4934;DHT22;2482;49.154;8.254;2023-08-06T07:38:42;15.80;99.90
4934;DHT22;2482;49.154;8.254;2023-08-06T07:41:09;15.70;99.90
4934;DHT22;2482;49.154;8.254;2023-08-06T07:43:36;15.80;99.90
4934;DHT22;2482;49.154;8.254;2023-08-06T07:46:03;15.90;99.90
4934;DHT22;2482;49.154;8.254;2023-08-06T07:48:30;15.90;99.90
4934;DHT22;2482;49.154;8.254;2023-08-06T07:50:57;15.90;99.90
4934;DHT22;2482;49.154;8.254;2023-08-06T07:53:25;16.00;99.90
4934;DHT22;2482;49.154;8.254;2023-08-06T07:55:59;16.00;99.90
4934;DHT22;2482;49.154;8.254;2023-08-06T07:58:28;16.20;99.90
4934;DHT22;2482;49.154;8.254;2023-08-06T08:00:56;16.20;99.90
4934;DHT22;2482;49.154;8.254;2023-08-06T08:03:23;16.30;99.90
4934;DHT22;2482;49.154;8.254;2023-08-06T08:05:54;16.30;99.90
4934;DHT22;2482;49.154;8.254;2023-08-06T08:08:25;16.30;99.90
4934;DHT22;2482;49.154;8.254;2023-08-06T08:10:52;16.30;99.90
4934;DHT22;2482;49.154;8.254;2023-08-06T08:13:21;16.20;99.90
4934;DHT22;2482;49.154;8.254;2023-08-06T08:15:48;16.10;99.90
4934;DHT22;2482;49.154;8.254;2023-08-06T08:18:15;16.00;99.90
4934;DHT22;2482;49.154;8.254;2023-08-06T08:20:42;15.90;99.90
4934;DHT22;2482;49.154;8.254;2023-08-06T08:23:10;15.80;99.90
4934;DHT22;2482;49.154;8.254;2023-08-06T08:25:37;15.80;99.90
4934;DHT22;2482;49.154;8.254;2023-08-06T08:28:04;15.80;99.90
4934;DHT22;2482;49.154;8.254;2023-08-06T08:30:31;15.80;99.90
4934;DHT22;2482;49.154;8.254;2023-08-06T08:32:58;15.90;99.90
4934;DHT22;2482;49.154;8.254;2023-08-06T08:35:25;15.80;99.90
4934;DHT22;2482;49.154;8.254;2023-08-06T08:37:52;15.90;99.90
4934;DHT22;2482;49.154;8.254;2023-08-06T08:40:21;15.90;99.90
4934;DHT22;2482;49.154;8.254;2023-08-06T08:42:50;15.90;99.90
4934;DHT22;2482;49.154;8.254;2023-08-06T08:45:20;16.10;99.90
4934;DHT22;2482;49.154;8.254;2023-08-06T08:47:48;16.10;99.90
4934;DHT22;2482;49.154;8.254;2023-08-06T08:50:15;16.30;99.90
4934;DHT22;2482;49.154;8.254;2023-08-06T08:52:43;16.50;99.90
4934;DHT22;2482;49.154;8.254;2023-08-06T08:55:14;16.50;99.90
4934;DHT22;2482;49.154;8.254;2023-08-06T08:57:42;16.60;99.90
4934;DHT22;2482;49.154;8.254;2023-08-06T09:00:10;16.70;99.90
4934;DHT22;2482;49.154;8.254;2023-08-06T09:02:38;16.60;99.90
4934;DHT22;2482;49.154;8.254;2023-08-06T09:05:06;16.60;99.90
4934;DHT22;2482;49.154;8.254;2023-08-06T09:07:52;16.60;99.90
4934;DHT22;2482;49.154;8.254;2023-08-06T09:10:21;16.60;99.90
4934;DHT22;2482;49.154;8.254;2023-08-06T09:12:52;16.70;99.90
4934;DHT22;2482;49.154;8.254;2023-08-06T09:15:20;16.50;99.90
4934;DHT22;2482;49.154;8.254;2023-08-06T09:17:52;16.40;99.90
4934;DHT22;2482;49.154;8.254;2023-08-06T09:20:20;16.40;99.90
4934;DHT22;2482;49.154;8.254;2023-08-06T09:22:48;16.40;99.90
4934;DHT22;2482;49.154;8.254;2023-08-06T09:25:22;16.50;99.90
4934;DHT22;2482;49.154;8.254;2023-08-06T09:27:54;16.60;99.90
4934;DHT22;2482;49.154;8.254;2023-08-06T09:30:33;16.40;99.90
4934;DHT22;2482;49.154;8.254;2023-08-06T09:33:04;16.40;99.90
4934;DHT22;2482;49.154;8.254;2023-08-06T09:35:37;16.30;99.90
4934;DHT22;2482;49.154;8.254;2023-08-06T09:38:08;16.30;99.90
4934;DHT22;2482;49.154;8.254;2023-08-06T09:40:37;16.20;99.90
4934;DHT22;2482;49.154;8.254;2023-08-06T09:43:05;16.10;99.90
4934;DHT22;2482;49.154;8.254;2023-08-06T09:45:36;16.10;99.90
4934;DHT22;2482;49.154;8.254;2023-08-06T09:48:08;16.00;99.90
4934;DHT22;2482;49.154;8.254;2023-08-06T09:50:37;16.00;99.90
4934;DHT22;2482;49.154;8.254;2023-08-06T09:53:06;15.90;99.90
4934;DHT22;2482;49.154;8.254;2023-08-06T09:55:35;16.00;99.90
4934;DHT22;2482;49.154;8.254;2023-08-06T09:58:02;16.00;99.90
4934;DHT22;2482;49.154;8.254;2023-08-06T10:00:30;16.10;99.90
4934;DHT22;2482;49.154;8.254;2023-08-06T10:03:02;16.10;99.90
4934;DHT22;2482;49.154;8.254;2023-08-06T10:05:31;16.00;99.90
4934;DHT22;2482;49.154;8.254;2023-08-06T10:07:59;16.00;99.90
4934;DHT22;2482;49.154;8.254;2023-08-06T10:10:28;16.00;99.90
4934;DHT22;2482;49.154;8.254;2023-08-06T10:12:57;16.00;99.90
4934;DHT22;2482;49.154;8.254;2023-08-06T10:15:26;16.10;99.90
4934;DHT22;2482;49.154;8.254;2023-08-06T10:17:57;16.10;99.90
4934;DHT22;2482;49.154;8.254;2023-08-06T10:20:25;16.10;99.90
4934;DHT22;2482;49.154;8.254;2023-08-06T10:23:06;16.10;99.90
4934;DHT22;2482;49.154;8.254;2023-08-06T10:25:40;16.10;99.90
4934;DHT22;2482;49.154;8.254;2023-08-06T10:28:09;16.10;99.90
4934;DHT22;2482;49.154;8.254;2023-08-06T10:30:47;16.00;99.90
4934;DHT22;2482;49.154;8.254;2023-08-06T10:33:14;16.10;99.90
4934;DHT22;2482;49.154;8.254;2023-08-06T10:35:44;16.20;99.90
4934;DHT22;2482;49.154;8.254;2023-08-06T10:38:19;16.30;99.90
4934;DHT22;2482;49.154;8.254;2023-08-06T10:43:26;16.30;99.90
4934;DHT22;2482;49.154;8.254;2023-08-06T10:45:58;16.20;99.90
4934;DHT22;2482;49.154;8.254;2023-08-06T10:48:31;16.20;99.90
4934;DHT22;2482;49.154;8.254;2023-08-06T10:51:01;16.00;99.90
4934;DHT22;2482;49.154;8.254;2023-08-06T10:53:29;16.10;99.90
4934;DHT22;2482;49.154;8.254;2023-08-06T10:56:00;16.00;99.90
4934;DHT22;2482;49.154;8.254;2023-08-06T10:58:32;15.80;99.90
4934;DHT22;2482;49.154;8.254;2023-08-06T11:01:00;15.90;99.90
4934;DHT22;2482;49.154;8.254;2023-08-06T11:03:28;15.80;99.90
4934;DHT22;2482;49.154;8.254;2023-08-06T11:05:55;15.70;99.90
4934;DHT22;2482;49.154;8.254;2023-08-06T11:08:27;15.60;99.90
4934;DHT22;2482;49.154;8.254;2023-08-06T11:10:55;15.60;99.90
4934;DHT22;2482;49.154;8.254;2023-08-06T11:13:34;15.60;99.90
4934;DHT22;2482;49.154;8.254;2023-08-06T11:16:01;15.50;99.90
4934;DHT22;2482;49.154;8.254;2023-08-06T11:18:28;15.50;99.90
4934;DHT22;2482;49.154;8.254;2023-08-06T11:20:59;15.50;99.90
4934;DHT22;2482;49.154;8.254;2023-08-06T11:23:30;15.50;99.90
4934;DHT22;2482;49.154;8.254;2023-08-06T11:25:57;15.50;99.90
4934;DHT22;2482;49.154;8.254;2023-08-06T11:28:25;15.50;99.90
4934;DHT22;2482;49.154;8.254;2023-08-06T11:30:52;15.50;99.90
4934;DHT22;2482;49.154;8.254;2023-08-06T11:33:24;15.50;99.90
4934;DHT22;2482;49.154;8.254;2023-08-06T11:35:58;15.60;99.90
4934;DHT22;2482;49.154;8.254;2023-08-06T11:38:28;15.60;99.90
4934;DHT22;2482;49.154;8.254;2023-08-06T11:40:55;15.80;99.90
4934;DHT22;2482;49.154;8.254;2023-08-06T11:43:23;15.80;99.90
4934;DHT22;2482;49.154;8.254;2023-08-06T11:45:50;15.90;99.90
4934;DHT22;2482;49.154;8.254;2023-08-06T11:48:17;16.00;99.90
4934;DHT22;2482;49.154;8.254;2023-08-06T11:50:45;16.10;99.90
4934;DHT22;2482;49.154;8.254;2023-08-06T11:53:13;16.20;99.90
4934;DHT22;2482;49.154;8.254;2023-08-06T11:55:41;16.30;99.90
4934;DHT22;2482;49.154;8.254;2023-08-06T11:58:10;16.20;99.90
4934;DHT22;2482;49.154;8.254;2023-08-06T12:00:42;16.10;99.90
4934;DHT22;2482;49.154;8.254;2023-08-06T12:03:10;16.10;99.90
4934;DHT22;2482;49.154;8.254;2023-08-06T12:05:37;16.10;99.90
4934;DHT22;2482;49.154;8.254;2023-08-06T12:08:05;16.00;99.90
4934;DHT22;2482;49.154;8.254;2023-08-06T12:10:32;15.90;99.90
4934;DHT22;2482;49.154;8.254;2023-08-06T12:13:00;15.90;99.90
4934;DHT22;2482;49.154;8.254;2023-08-06T12:15:28;15.90;99.90
4934;DHT22;2482;49.154;8.254;2023-08-06T12:17:58;15.80;99.90
4934;DHT22;2482;49.154;8.254;2023-08-06T12:20:25;15.80;99.90
4934;DHT22;2482;49.154;8.254;2023-08-06T12:22:53;15.80;99.90
4934;DHT22;2482;49.154;8.254;2023-08-06T12:25:20;15.70;99.90
4934;DHT22;2482;49.154;8.254;2023-08-06T12:27:47;15.70;99.90
4934;DHT22;2482;49.154;8.254;2023-08-06T12:30:14;15.70;99.90
4934;DHT22;2482;49.154;8.254;2023-08-06T12:32:41;15.70;99.90
4934;DHT22;2482;49.154;8.254;2023-08-06T12:35:08;15.80;99.90
4934;DHT22;2482;49.154;8.254;2023-08-06T12:37:36;15.90;99.90
4934;DHT22;2482;49.154;8.254;2023-08-06T12:40:05;16.00;99.90
4934;DHT22;2482;49.154;8.254;2023-08-06T12:42:53;16.00;99.90
4934;DHT22;2482;49.154;8.254;2023-08-06T12:45:20;16.00;99.90
4934;DHT22;2482;49.154;8.254;2023-08-06T12:47:49;15.90;99.90
4934;DHT22;2482;49.154;8.254;2023-08-06T12:50:17;15.60;99.90
4934;DHT22;2482;49.154;8.254;2023-08-06T12:52:44;15.40;99.90
4934;DHT22;2482;49.154;8.254;2023-08-06T12:55:12;15.40;99.90
4934;DHT22;2482;49.154;8.254;2023-08-06T12:57:40;15.30;99.90
4934;DHT22;2482;49.154;8.254;2023-08-06T13:00:27;15.40;99.90
4934;DHT22;2482;49.154;8.254;2023-08-06T13:02:54;15.60;99.90
4934;DHT22;2482;49.154;8.254;2023-08-06T13:05:22;15.70;99.90
4934;DHT22;2482;49.154;8.254;2023-08-06T13:07:49;15.70;99.90
4934;DHT22;2482;49.154;8.254;2023-08-06T13:10:16;15.70;99.90
4934;DHT22;2482;49.154;8.254;2023-08-06T13:12:43;15.80;99.90
4934;DHT22;2482;49.154;8.254;2023-08-06T13:15:11;15.90;99.90
4934;DHT22;2482;49.154;8.254;2023-08-06T13:17:38;16.00;99.90
4934;DHT22;2482;49.154;8.254;2023-08-06T13:20:05;16.00;99.90
4934;DHT22;2482;49.154;8.254;2023-08-06T13:22:33;16.00;99.90
4934;DHT22;2482;49.154;8.254;2023-08-06T13:25:00;16.00;99.90
4934;DHT22;2482;49.154;8.254;2023-08-06T13:27:27;16.10;99.90
4934;DHT22;2482;49.154;8.254;2023-08-06T13:29:54;16.20;99.90
4934;DHT22;2482;49.154;8.254;2023-08-06T13:32:21;16.30;99.90
4934;DHT22;2482;49.154;8.254;2023-08-06T13:34:48;16.30;99.90
4934;DHT22;2482;49.154;8.254;2023-08-06T13:37:15;16.40;99.90
4934;DHT22;2482;49.154;8.254;2023-08-06T13:39:42;16.40;99.90
4934;DHT22;2482;49.154;8.254;2023-08-06T13:42:09;16.60;99.90
4934;DHT22;2482;49.154;8.254;2023-08-06T13:44:36;16.80;99.90
4934;DHT22;2482;49.154;8.254;2023-08-06T13:47:03;16.70;99.90
4934;DHT22;2482;49.154;8.254;2023-08-06T13:49:30;16.50;99.90
4934;DHT22;2482;49.154;8.254;2023-08-06T13:51:57;16.50;99.90
4934;DHT22;2482;49.154;8.254;2023-08-06T13:54:44;16.50;99.90
4934;DHT22;2482;49.154;8.254;2023-08-06T13:57:11;16.50;99.90
4934;DHT22;2482;49.154;8.254;2023-08-06T13:59:39;16.60;99.90
4934;DHT22;2482;49.154;8.254;2023-08-06T14:02:07;16.50;99.90
4934;DHT22;2482;49.154;8.254;2023-08-06T14:04:34;16.80;99.90
4934;DHT22;2482;49.154;8.254;2023-08-06T14:07:01;16.90;99.90
4934;DHT22;2482;49.154;8.254;2023-08-06T14:09:29;17.00;99.90
4934;DHT22;2482;49.154;8.254;2023-08-06T14:11:56;17.00;99.90
4934;DHT22;2482;49.154;8.254;2023-08-06T14:14:23;17.00;99.90
4934;DHT22;2482;49.154;8.254;2023-08-06T14:16:53;17.10;99.90
4934;DHT22;2482;49.154;8.254;2023-08-06T14:19:22;17.20;99.90
4934;DHT22;2482;49.154;8.254;2023-08-06T14:21:49;17.30;99.90
4934;DHT22;2482;49.154;8.254;2023-08-06T14:24:18;17.20;99.90
4934;DHT22;2482;49.154;8.254;2023-08-06T14:26:45;17.00;99.90
4934;DHT22;2482;49.154;8.254;2023-08-06T14:29:12;17.20;99.90
4934;DHT22;2482;49.154;8.254;2023-08-06T14:31:41;17.10;99.90
4934;DHT22;2482;49.154;8.254;2023-08-06T14:34:08;17.10;99.90
4934;DHT22;2482;49.154;8.254;2023-08-06T14:36:35;17.00;99.90
4934;DHT22;2482;49.154;8.254;2023-08-06T14:39:02;16.90;99.90
4934;DHT22;2482;49.154;8.254;2023-08-06T14:41:29;17.10;99.90
4934;DHT22;2482;49.154;8.254;2023-08-06T14:43:56;17.20;99.90
4934;DHT22;2482;49.154;8.254;2023-08-06T14:46:23;17.20;99.90
4934;DHT22;2482;49.154;8.254;2023-08-06T14:48:50;17.30;99.90
4934;DHT22;2482;49.154;8.254;2023-08-06T14:51:17;17.30;99.90
4934;DHT22;2482;49.154;8.254;2023-08-06T14:53:47;17.40;99.90
4934;DHT22;2482;49.154;8.254;2023-08-06T14:56:15;17.50;99.90
4934;DHT22;2482;49.154;8.254;2023-08-06T14:58:42;17.50;99.90
4934;DHT22;2482;49.154;8.254;2023-08-06T15:01:09;17.50;99.90
4934;DHT22;2482;49.154;8.254;2023-08-06T15:03:36;17.30;99.90
4934;DHT22;2482;49.154;8.254;2023-08-06T15:06:03;17.10;99.90
4934;DHT22;2482;49.154;8.254;2023-08-06T15:08:30;16.80;99.90
4934;DHT22;2482;49.154;8.254;2023-08-06T15:10:57;16.60;99.90
4934;DHT22;2482;49.154;8.254;2023-08-06T15:13:24;16.40;99.90
4934;DHT22;2482;49.154;8.254;2023-08-06T15:15:52;16.10;99.90
4934;DHT22;2482;49.154;8.254;2023-08-06T15:18:19;15.50;99.90
4934;DHT22;2482;49.154;8.254;2023-08-06T15:20:47;15.20;99.90
4934;DHT22;2482;49.154;8.254;2023-08-06T15:23:15;15.30;99.90
4934;DHT22;2482;49.154;8.254;2023-08-06T15:25:42;15.60;99.90
4934;DHT22;2482;49.154;8.254;2023-08-06T15:28:09;15.80;99.90
4934;DHT22;2482;49.154;8.254;2023-08-06T15:30:36;15.90;99.90
4934;DHT22;2482;49.154;8.254;2023-08-06T15:33:03;16.00;99.90
4934;DHT22;2482;49.154;8.254;2023-08-06T15:35:30;16.10;99.90
4934;DHT22;2482;49.154;8.254;2023-08-06T15:37:57;16.10;99.90
4934;DHT22;2482;49.154;8.254;2023-08-06T15:40:24;16.10;99.90
4934;DHT22;2482;49.154;8.254;2023-08-06T15:42:51;16.00;99.90
4934;DHT22;2482;49.154;8.254;2023-08-06T15:45:18;16.00;99.90
4934;DHT22;2482;49.154;8.254;2023-08-06T15:47:45;16.00;99.90
4934;DHT22;2482;49.154;8.254;2023-08-06T15:50:12;16.10;99.90
4934;DHT22;2482;49.154;8.254;2023-08-06T15:52:39;16.20;99.90
4934;DHT22;2482;49.154;8.254;2023-08-06T15:55:07;16.30;99.90
4934;DHT22;2482;49.154;8.254;2023-08-06T15:57:34;16.30;99.90
4934;DHT22;2482;49.154;8.254;2023-08-06T16:00:04;16.30;99.90
4934;DHT22;2482;49.154;8.254;2023-08-06T16:02:31;16.50;99.90
4934;DHT22;2482;49.154;8.254;2023-08-06T16:04:59;16.50;99.90
4934;DHT22;2482;49.154;8.254;2023-08-06T16:07:26;16.50;99.90
4934;DHT22;2482;49.154;8.254;2023-08-06T16:09:54;16.50;99.90
4934;DHT22;2482;49.154;8.254;2023-08-06T16:12:22;16.40;99.90
4934;DHT22;2482;49.154;8.254;2023-08-06T16:14:49;16.40;99.90
4934;DHT22;2482;49.154;8.254;2023-08-06T16:17:16;16.30;99.90
4934;DHT22;2482;49.154;8.254;2023-08-06T16:19:45;16.20;99.90